createdAt,value
2018-07-16T00:00:26.228Z,61.84
2018-07-16T00:02:54.819Z,61.59
2018-07-16T00:05:23.243Z,61.58
2018-07-16T00:07:51.685Z,61.94
2018-07-16T00:10:20.377Z,62.09
2018-07-16T00:12:48.937Z,62.38
2018-07-16T00:15:17.485Z,62.76
2018-07-16T00:17:46.023Z,63.40
2018-07-16T00:20:14.602Z,63.68
2018-07-16T00:22:43.098Z,62.49
2018-07-16T00:25:11.554Z,62.57
2018-07-16T00:27:40.085Z,62.44
2018-07-16T00:30:08.619Z,62.81
2018-07-16T00:32:37.049Z,63.00
2018-07-16T00:35:05.599Z,63.22
2018-07-16T00:37:34.044Z,63.25
2018-07-16T00:40:02.479Z,63.91
2018-07-16T00:42:31.013Z,63.16
2018-07-16T00:44:59.451Z,63.30
2018-07-16T00:47:27.897Z,64.59
2018-07-16T00:49:57.039Z,64.71
2018-07-16T00:52:25.591Z,64.38
2018-07-16T00:54:54.034Z,65.72
2018-07-16T00:57:22.568Z,66.96
2018-07-16T00:59:51.124Z,67.05
2018-07-16T01:02:19.596Z,67.49
2018-07-16T01:04:48.054Z,67.40
2018-07-16T01:07:16.681Z,65.58
2018-07-16T01:09:45.499Z,65.18
2018-07-16T01:12:13.945Z,66.48
2018-07-16T01:14:42.356Z,67.33
2018-07-16T01:17:10.772Z,67.03
2018-07-16T01:19:39.185Z,66.50
2018-07-16T01:22:07.669Z,66.19
2018-07-16T01:24:36.141Z,66.74
2018-07-16T01:27:04.569Z,67.31
2018-07-16T01:29:33.005Z,67.32
2018-07-16T01:32:01.485Z,67.92
2018-07-16T01:34:29.948Z,67.41
2018-07-16T01:36:58.493Z,67.55
2018-07-16T01:39:27.001Z,68.23
2018-07-16T01:41:55.446Z,68.13
2018-07-16T01:44:28.038Z,66.70
2018-07-16T01:46:56.567Z,66.31
2018-07-16T01:49:25.103Z,66.36
2018-07-16T01:51:53.563Z,65.94
2018-07-16T01:54:22.023Z,65.81
2018-07-16T01:56:50.412Z,66.19
2018-07-16T01:59:18.976Z,67.35
2018-07-16T02:01:47.459Z,67.53
2018-07-16T02:04:15.949Z,68.02
2018-07-16T02:06:44.405Z,68.16
2018-07-16T02:09:12.921Z,66.96
2018-07-16T02:11:41.350Z,67.40
2018-07-16T02:14:09.807Z,67.05
2018-07-16T02:16:38.258Z,66.93
2018-07-16T02:19:06.692Z,68.11
2018-07-16T02:21:35.142Z,69.21
2018-07-16T02:24:03.593Z,69.15
2018-07-16T02:26:32.071Z,67.89
2018-07-16T02:29:00.507Z,67.77
2018-07-16T02:31:29.051Z,68.45
2018-07-16T02:33:57.519Z,69.03
2018-07-16T02:36:26.049Z,69.51
2018-07-16T02:38:54.587Z,69.79
2018-07-16T02:41:23.166Z,69.88
2018-07-16T02:43:51.660Z,69.54
2018-07-16T02:46:20.260Z,69.47
2018-07-16T02:48:48.692Z,69.13
2018-07-16T02:51:17.121Z,69.34
2018-07-16T02:53:45.562Z,69.31
2018-07-16T02:56:14.114Z,68.51
2018-07-16T02:58:42.518Z,68.38
2018-07-16T03:01:10.963Z,69.11
2018-07-16T03:03:39.549Z,69.49
2018-07-16T03:06:08.082Z,68.40
2018-07-16T03:08:36.586Z,68.08
2018-07-16T03:11:05.034Z,68.08
2018-07-16T03:13:33.443Z,68.16
2018-07-16T03:16:02.031Z,67.44
2018-07-16T03:18:30.446Z,68.05
2018-07-16T03:20:58.980Z,68.67
2018-07-16T03:23:27.432Z,69.20
2018-07-16T03:25:55.954Z,69.30
2018-07-16T03:28:24.642Z,68.82
2018-07-16T03:30:53.112Z,69.02
2018-07-16T03:33:21.620Z,69.73
2018-07-16T03:35:50.085Z,69.82
2018-07-16T03:38:18.558Z,69.28
2018-07-16T03:40:47.160Z,69.78
2018-07-16T03:43:15.611Z,71.00
2018-07-16T03:45:45.076Z,70.98
2018-07-16T03:48:13.622Z,69.59
2018-07-16T03:50:42.099Z,69.21
2018-07-16T03:53:10.603Z,69.41
2018-07-16T03:55:39.075Z,69.61
2018-07-16T03:58:07.547Z,69.55
2018-07-16T04:00:36.018Z,70.61
2018-07-16T04:03:04.622Z,70.87
2018-07-16T04:05:33.134Z,69.90
2018-07-16T04:08:01.653Z,69.39
2018-07-16T04:13:51.811Z,71.08
2018-07-16T04:16:22.077Z,71.26
2018-07-16T04:18:50.525Z,71.68
2018-07-16T04:21:19.055Z,71.54
2018-07-16T04:23:47.642Z,70.76
2018-07-16T04:26:35.102Z,71.40
2018-07-16T04:29:03.582Z,71.79
2018-07-16T04:31:32.041Z,72.30
2018-07-16T04:34:00.520Z,71.55
2018-07-16T04:36:29.020Z,71.73
2018-07-16T04:38:57.482Z,72.67
2018-07-16T04:41:26.033Z,72.81
2018-07-16T04:43:54.512Z,72.46
2018-07-16T04:46:22.951Z,72.54
2018-07-16T04:48:51.436Z,72.50
2018-07-16T04:51:19.917Z,71.76
2018-07-16T04:53:48.487Z,71.32
2018-07-16T04:56:17.041Z,71.45
2018-07-16T04:58:45.455Z,71.38
2018-07-16T05:01:13.893Z,70.93
2018-07-16T05:03:42.425Z,70.11
2018-07-16T05:06:10.920Z,69.61
2018-07-16T05:08:39.336Z,69.88
2018-07-16T05:11:07.902Z,69.57
2018-07-16T05:13:36.441Z,69.17
2018-07-16T05:16:06.352Z,69.41
2018-07-16T05:18:34.909Z,68.78
2018-07-16T05:21:03.433Z,67.83
2018-07-16T05:23:31.908Z,67.13
2018-07-16T05:26:00.360Z,66.13
2018-07-16T05:28:28.785Z,66.50
2018-07-16T05:30:57.246Z,66.37
2018-07-16T05:33:25.737Z,66.21
2018-07-16T05:35:54.265Z,65.61
2018-07-16T05:38:22.813Z,65.40
2018-07-16T05:40:51.248Z,65.21
2018-07-16T05:43:19.698Z,64.70
2018-07-16T05:45:48.219Z,64.29
2018-07-16T05:48:16.728Z,64.25
2018-07-16T05:50:45.176Z,63.85
2018-07-16T05:53:13.712Z,62.69
2018-07-16T05:55:42.137Z,61.73
2018-07-16T05:58:10.630Z,61.94
2018-07-16T06:00:39.035Z,62.30
2018-07-16T06:03:07.501Z,60.57
2018-07-16T06:05:35.940Z,61.18
2018-07-16T06:08:04.420Z,60.68
2018-07-16T06:10:32.876Z,60.44
2018-07-16T06:13:02.081Z,60.90
2018-07-16T06:15:30.657Z,60.71
2018-07-16T06:17:59.098Z,59.93
2018-07-16T06:20:27.646Z,59.25
2018-07-16T06:22:56.185Z,59.34
2018-07-16T06:25:31.812Z,59.63
2018-07-16T06:28:00.305Z,59.43
2018-07-16T06:30:28.841Z,59.45
2018-07-16T06:32:57.371Z,59.01
2018-07-16T06:35:25.881Z,58.34
2018-07-16T06:37:54.337Z,58.03
2018-07-16T06:40:22.955Z,57.74
2018-07-16T06:42:51.656Z,56.66
2018-07-16T06:45:20.235Z,56.29
2018-07-16T06:47:48.855Z,56.41
2018-07-16T06:50:17.356Z,56.89
2018-07-16T06:52:45.831Z,56.92
2018-07-16T06:55:14.309Z,56.42
2018-07-16T06:57:42.795Z,55.98
2018-07-16T07:00:11.299Z,56.39
2018-07-16T07:02:39.735Z,55.92
2018-07-16T07:05:08.254Z,56.31
2018-07-16T07:07:36.831Z,56.25
2018-07-16T07:10:05.768Z,55.71
2018-07-16T07:12:34.211Z,56.15
2018-07-16T07:15:02.645Z,54.33
2018-07-16T07:17:31.279Z,54.55
2018-07-16T07:19:59.741Z,54.81
2018-07-16T07:22:28.160Z,54.88
2018-07-16T07:24:56.600Z,54.48
2018-07-16T07:27:25.112Z,53.05
2018-07-16T07:29:53.683Z,51.75
2018-07-16T07:32:22.188Z,50.93
2018-07-16T07:34:51.607Z,51.41
2018-07-16T07:37:20.235Z,51.28
2018-07-16T07:39:48.732Z,51.77
2018-07-16T07:42:17.243Z,51.93
2018-07-16T07:44:45.908Z,50.48
2018-07-16T07:47:14.523Z,50.52
2018-07-16T07:49:43.070Z,50.00
2018-07-16T07:52:11.485Z,50.77
2018-07-16T07:54:40.119Z,50.74
2018-07-16T07:57:08.725Z,50.86
2018-07-16T07:59:37.328Z,51.09
2018-07-16T08:02:05.800Z,50.26
2018-07-16T08:04:34.312Z,49.08
2018-07-16T08:07:08.109Z,49.12
2018-07-16T08:09:36.611Z,49.04
2018-07-16T08:12:05.190Z,49.33
2018-07-16T08:14:33.938Z,49.91
2018-07-16T08:17:02.576Z,49.62
2018-07-16T08:19:31.028Z,49.93
2018-07-16T08:21:59.593Z,50.13
2018-07-16T08:24:28.689Z,48.08
2018-07-16T08:26:57.221Z,47.65
2018-07-16T08:29:25.788Z,47.34
2018-07-16T08:31:54.381Z,46.99
2018-07-16T08:34:22.862Z,47.45
2018-07-16T08:37:04.093Z,46.68
2018-07-16T08:39:32.609Z,47.27
2018-07-16T08:42:01.097Z,46.49
2018-07-16T08:44:29.659Z,46.85
2018-07-16T08:47:01.553Z,46.25
2018-07-16T08:49:30.083Z,45.06
2018-07-16T08:51:58.529Z,44.70
2018-07-16T08:54:26.980Z,45.01
2018-07-16T08:56:55.520Z,44.78
2018-07-16T08:59:23.972Z,43.83
2018-07-16T09:01:52.545Z,44.13
2018-07-16T09:04:21.152Z,44.45
2018-07-16T09:06:49.777Z,44.75
2018-07-16T09:09:18.349Z,44.50
2018-07-16T09:11:46.986Z,44.29
2018-07-16T09:14:15.564Z,43.61
2018-07-16T09:16:44.150Z,42.42
2018-07-16T09:19:12.799Z,42.03
2018-07-16T09:21:42.216Z,41.50
2018-07-16T09:24:10.801Z,40.65
2018-07-16T09:26:39.391Z,40.94
2018-07-16T09:29:08.381Z,40.26
2018-07-16T09:31:37.046Z,39.21
2018-07-16T09:34:05.572Z,37.95
2018-07-16T09:36:34.264Z,36.73
2018-07-16T09:39:02.883Z,36.67
2018-07-16T09:41:31.380Z,36.41
2018-07-16T09:43:59.956Z,36.28
2018-07-16T09:46:28.439Z,36.31
2018-07-16T09:48:57.493Z,35.12
2018-07-16T09:51:25.969Z,35.33
2018-07-16T09:53:54.552Z,35.75
2018-07-16T09:56:23.595Z,35.05
2018-07-16T09:58:52.462Z,33.52
2018-07-16T10:01:26.248Z,34.04
2018-07-16T10:03:54.764Z,33.68
2018-07-16T10:06:26.664Z,33.55
2018-07-16T10:08:55.212Z,32.79
2018-07-16T10:11:23.693Z,33.66
2018-07-16T10:13:52.179Z,33.61
2018-07-16T10:16:20.682Z,34.18
2018-07-16T10:18:49.263Z,33.66
2018-07-16T10:21:17.745Z,32.22
2018-07-16T10:23:46.315Z,33.63
2018-07-16T10:26:14.900Z,33.92
2018-07-16T10:28:44.917Z,31.76
2018-07-16T10:31:13.481Z,32.18
2018-07-16T10:33:42.001Z,31.88
2018-07-16T10:36:10.384Z,32.01
2018-07-16T10:38:38.862Z,31.58
2018-07-16T10:41:07.426Z,31.48
2018-07-16T10:43:36.022Z,29.20
2018-07-16T10:46:04.784Z,27.55
2018-07-16T10:48:33.348Z,27.71
2018-07-16T10:51:02.006Z,27.98
2018-07-16T10:53:30.740Z,28.04
2018-07-16T10:55:59.620Z,27.21
2018-07-16T10:58:28.274Z,27.56
2018-07-16T11:00:56.811Z,26.66
2018-07-16T11:03:25.296Z,27.35
2018-07-16T11:05:53.780Z,27.65
2018-07-16T11:08:22.237Z,27.25
2018-07-16T11:10:50.698Z,26.94
2018-07-16T11:13:19.212Z,26.08
2018-07-16T11:15:47.804Z,26.11
2018-07-16T11:18:16.307Z,27.23
2018-07-16T11:20:44.904Z,27.48
2018-07-16T11:23:13.462Z,27.74
2018-07-16T11:25:46.102Z,26.94
2018-07-16T11:28:14.601Z,25.15
2018-07-16T11:30:43.107Z,25.12
2018-07-16T11:33:11.607Z,23.70
2018-07-16T11:35:40.206Z,24.01
2018-07-16T11:38:08.653Z,22.96
2018-07-16T11:40:37.193Z,23.07
2018-07-16T11:43:05.796Z,22.75
2018-07-16T11:45:34.306Z,23.03
2018-07-16T11:48:02.854Z,22.97
2018-07-16T11:50:31.363Z,22.30
2018-07-16T11:52:59.953Z,20.91
2018-07-16T11:55:28.501Z,21.13
2018-07-16T11:57:56.973Z,20.37
2018-07-16T12:00:25.706Z,20.04
2018-07-16T12:02:54.250Z,20.27
2018-07-16T12:05:22.746Z,20.27
2018-07-16T12:07:51.260Z,19.59
2018-07-16T12:10:19.811Z,18.89
2018-07-16T12:12:48.408Z,18.21
2018-07-16T12:15:16.955Z,18.58
2018-07-16T12:17:45.569Z,17.96
2018-07-16T12:20:14.134Z,18.25
2018-07-16T12:22:42.706Z,17.05
2018-07-16T12:25:11.186Z,17.54
2018-07-16T12:27:39.710Z,17.66
2018-07-16T12:30:08.361Z,18.34
2018-07-16T12:32:36.925Z,17.18
2018-07-16T12:35:05.633Z,17.54
2018-07-16T12:37:34.097Z,16.68
2018-07-16T12:40:02.638Z,16.87
2018-07-16T12:42:31.183Z,16.87
2018-07-16T12:44:59.666Z,15.74
2018-07-16T12:47:28.217Z,16.19
2018-07-16T12:49:56.695Z,16.54
2018-07-16T12:52:25.185Z,17.05
2018-07-16T12:54:53.701Z,16.05
2018-07-16T12:57:22.207Z,16.05
2018-07-16T12:59:50.925Z,15.32
2018-07-16T13:02:19.514Z,15.31
2018-07-16T13:04:47.958Z,14.85
2018-07-16T13:07:16.505Z,15.36
2018-07-16T13:09:45.058Z,15.22
2018-07-16T13:12:13.609Z,15.76
2018-07-16T13:14:42.167Z,15.71
2018-07-16T13:17:11.126Z,15.50
2018-07-16T13:19:39.548Z,14.72
2018-07-16T13:22:08.102Z,14.89
2018-07-16T13:24:36.666Z,15.91
2018-07-16T13:27:05.381Z,16.69
2018-07-16T13:29:33.993Z,16.79
2018-07-16T13:32:02.617Z,16.36
2018-07-16T13:34:31.275Z,16.39
2018-07-16T13:36:59.795Z,16.87
2018-07-16T13:39:28.350Z,15.76
2018-07-16T13:41:56.789Z,17.62
2018-07-16T13:44:25.336Z,16.54
2018-07-16T13:46:53.905Z,15.69
2018-07-16T13:49:22.401Z,16.71
2018-07-16T13:51:50.893Z,17.23
2018-07-16T13:54:19.622Z,17.42
2018-07-16T13:56:48.071Z,17.24
2018-07-16T13:59:16.589Z,17.48
2018-07-16T14:01:45.072Z,17.98
2018-07-16T14:04:13.682Z,17.18
2018-07-16T14:06:42.170Z,16.93
2018-07-16T14:09:10.632Z,16.81
2018-07-16T14:11:39.106Z,17.76
2018-07-16T14:14:07.603Z,18.63
2018-07-16T14:16:36.181Z,18.05
2018-07-16T14:19:04.917Z,17.95
2018-07-16T14:21:33.544Z,17.01
2018-07-16T14:24:02.015Z,16.71
2018-07-16T14:26:30.623Z,17.02
2018-07-16T14:28:59.134Z,17.66
2018-07-16T14:31:27.756Z,16.98
2018-07-16T14:33:56.266Z,17.69
2018-07-16T14:36:24.851Z,17.87
2018-07-16T14:38:53.462Z,17.67
2018-07-16T14:41:22.129Z,17.85
2018-07-16T14:43:50.807Z,18.29
2018-07-16T14:46:20.439Z,18.99
2018-07-16T14:48:49.184Z,20.04
2018-07-16T14:51:17.776Z,19.79
2018-07-16T14:53:46.362Z,20.57
2018-07-16T14:56:14.908Z,21.67
2018-07-16T14:58:43.442Z,20.16
2018-07-16T15:01:11.885Z,19.12
2018-07-16T15:03:40.381Z,18.65
2018-07-16T15:06:08.928Z,18.88
2018-07-16T15:08:37.640Z,19.56
2018-07-16T15:11:06.539Z,18.42
2018-07-16T15:13:35.018Z,17.23
2018-07-16T15:16:03.506Z,17.45
2018-07-16T15:18:32.116Z,16.80
2018-07-16T15:21:01.168Z,16.37
2018-07-16T15:23:29.233Z,16.39
2018-07-16T15:25:57.656Z,16.44
2018-07-16T15:28:26.209Z,16.72
2018-07-16T15:30:54.660Z,16.24
2018-07-16T15:33:25.105Z,16.93
2018-07-16T15:35:53.968Z,16.22
2018-07-16T15:38:22.571Z,17.53
2018-07-16T15:40:51.770Z,16.61
2018-07-16T15:43:21.903Z,15.46
2018-07-16T15:45:50.432Z,16.39
2018-07-16T15:48:18.993Z,16.63
2018-07-16T15:50:47.550Z,16.93
2018-07-16T15:53:16.573Z,17.63
2018-07-16T15:55:45.124Z,16.70
2018-07-16T15:58:13.649Z,17.11
2018-07-16T16:00:42.174Z,17.12
2018-07-16T16:03:10.757Z,18.12
2018-07-16T16:05:39.270Z,17.36
2018-07-16T16:08:07.873Z,17.58
2018-07-16T16:10:37.215Z,16.64
2018-07-16T16:13:14.461Z,16.32
2018-07-16T16:15:42.997Z,16.46
2018-07-16T16:18:12.221Z,17.00
2018-07-16T16:20:40.869Z,17.22
2018-07-16T16:23:09.535Z,16.94
2018-07-16T16:25:38.093Z,16.49
2018-07-16T16:28:06.746Z,16.89
2018-07-16T16:30:35.357Z,17.04
2018-07-16T16:33:03.998Z,17.77
2018-07-16T16:35:32.384Z,17.37
2018-07-16T16:38:01.296Z,17.50
2018-07-16T16:40:30.018Z,17.42
2018-07-16T16:42:58.634Z,17.36
2018-07-16T16:45:27.136Z,17.95
2018-07-16T16:47:55.718Z,17.44
2018-07-16T16:50:24.444Z,16.70
2018-07-16T16:52:52.992Z,17.37
2018-07-16T16:55:21.549Z,17.37
2018-07-16T16:57:49.997Z,17.15
2018-07-16T17:00:18.501Z,16.74
2018-07-16T17:02:46.994Z,16.94
2018-07-16T17:05:15.465Z,17.94
2018-07-16T17:07:43.947Z,17.37
2018-07-16T17:10:12.462Z,17.50
2018-07-16T17:12:41.003Z,17.83
2018-07-16T17:15:09.509Z,17.26
2018-07-16T17:17:39.109Z,18.17
2018-07-16T17:20:07.724Z,17.79
2018-07-16T17:22:36.231Z,18.09
2018-07-16T17:25:05.091Z,17.41
2018-07-16T17:27:33.674Z,17.63
2018-07-16T17:30:02.308Z,18.32
2018-07-16T17:32:30.798Z,18.19
2018-07-16T17:34:59.285Z,18.06
2018-07-16T17:37:27.849Z,18.75
2018-07-16T17:39:56.357Z,19.31
2018-07-16T17:42:25.015Z,19.02
2018-07-16T17:44:54.980Z,18.97
2018-07-16T17:47:24.560Z,18.69
2018-07-16T17:49:53.022Z,18.75
2018-07-16T17:52:21.484Z,18.70
2018-07-16T17:54:50.014Z,18.91
2018-07-16T17:57:18.575Z,19.55
2018-07-16T17:59:47.105Z,19.99
2018-07-16T18:02:15.588Z,19.97
2018-07-16T18:04:44.093Z,20.14
2018-07-16T18:07:16.742Z,20.21
2018-07-16T18:09:45.275Z,20.50
2018-07-16T18:12:13.912Z,21.07
2018-07-16T18:14:42.346Z,21.63
2018-07-16T18:17:10.823Z,21.14
2018-07-16T18:19:39.268Z,22.35
2018-07-16T18:22:07.794Z,22.97
2018-07-16T18:24:36.320Z,23.87
2018-07-16T18:27:05.285Z,25.78
2018-07-16T18:29:33.927Z,28.42
2018-07-16T18:32:03.539Z,30.03
2018-07-16T18:34:32.061Z,30.75
2018-07-16T18:37:00.643Z,30.41
2018-07-16T18:39:29.248Z,32.22
2018-07-16T18:41:57.703Z,31.89
2018-07-16T18:44:26.316Z,32.53
2018-07-16T18:46:54.860Z,33.10
2018-07-16T18:49:23.353Z,32.69
2018-07-16T18:51:51.957Z,35.15
2018-07-16T18:54:20.513Z,35.80
2018-07-16T18:56:49.096Z,36.33
2018-07-16T18:59:17.679Z,35.79
2018-07-16T19:01:47.359Z,34.86
2018-07-16T19:04:16.000Z,34.39
2018-07-16T19:06:44.472Z,33.90
2018-07-16T19:09:13.173Z,33.92
2018-07-16T19:11:41.677Z,34.51
2018-07-16T19:14:10.701Z,35.87
2018-07-16T19:16:39.581Z,35.71
2018-07-16T19:19:08.208Z,35.17
2018-07-16T19:21:37.510Z,35.72
2018-07-16T19:24:05.990Z,37.38
2018-07-16T19:26:34.543Z,37.19
2018-07-16T19:29:10.617Z,38.03
2018-07-16T19:31:39.089Z,37.70
2018-07-16T19:34:07.829Z,38.34
2018-07-16T19:36:37.422Z,38.04
2018-07-16T19:39:07.971Z,38.57
2018-07-16T19:41:36.921Z,40.06
2018-07-16T19:44:05.516Z,40.11
2018-07-16T19:46:34.103Z,42.21
2018-07-16T19:49:02.685Z,41.95
2018-07-16T19:51:31.444Z,41.74
2018-07-16T19:53:59.943Z,42.11
2018-07-16T19:56:28.409Z,43.10
2018-07-16T19:58:57.109Z,43.02
2018-07-16T20:01:25.600Z,42.88
2018-07-16T20:03:54.115Z,42.30
2018-07-16T20:06:22.645Z,43.56
2018-07-16T20:08:51.124Z,44.63
2018-07-16T20:11:19.771Z,45.86
2018-07-16T20:13:48.283Z,46.56
2018-07-16T20:16:16.759Z,47.72
2018-07-16T20:18:45.253Z,47.93
2018-07-16T20:21:13.948Z,48.79
2018-07-16T20:23:42.518Z,48.04
2018-07-16T20:26:11.053Z,46.89
2018-07-16T20:28:39.578Z,48.36
2018-07-16T20:31:08.104Z,47.94
2018-07-16T20:33:36.683Z,47.71
2018-07-16T20:36:05.618Z,48.53
2018-07-16T20:38:34.128Z,49.93
2018-07-16T20:41:02.641Z,48.27
2018-07-16T20:43:31.149Z,48.16
2018-07-16T20:45:59.715Z,48.61
2018-07-16T20:48:28.290Z,49.99
2018-07-16T20:50:56.882Z,51.27
2018-07-16T20:53:25.356Z,50.33
2018-07-16T20:55:53.829Z,51.38
2018-07-16T20:58:22.402Z,52.49
2018-07-16T21:00:50.927Z,52.16
2018-07-16T21:03:19.376Z,51.42
2018-07-16T21:05:47.978Z,52.15
2018-07-16T21:08:16.512Z,51.59
2018-07-16T21:10:45.125Z,51.40
2018-07-16T21:13:13.709Z,53.04
2018-07-16T21:15:42.317Z,54.28
2018-07-16T21:18:10.792Z,54.43
2018-07-16T21:20:39.327Z,53.92
2018-07-16T21:23:07.852Z,53.97
2018-07-16T21:25:36.538Z,53.45
2018-07-16T21:28:05.186Z,52.67
2018-07-16T21:30:33.789Z,53.66
2018-07-16T21:33:03.515Z,54.61
2018-07-16T21:35:32.136Z,55.22
2018-07-16T21:38:00.669Z,55.48
2018-07-16T21:40:29.210Z,55.75
2018-07-16T21:42:58.082Z,55.73
2018-07-16T21:45:26.748Z,56.24
2018-07-16T21:47:55.300Z,55.82
2018-07-16T21:50:23.997Z,55.15
2018-07-16T21:52:52.460Z,56.48
2018-07-16T21:55:21.259Z,56.56
2018-07-16T21:57:49.844Z,56.44
2018-07-16T22:00:29.183Z,56.08
2018-07-16T22:02:58.858Z,54.73
2018-07-16T22:05:28.295Z,51.86
2018-07-16T22:07:58.097Z,50.11
2018-07-16T22:10:27.304Z,49.32
2018-07-16T22:12:56.912Z,48.96
2018-07-16T22:15:26.731Z,48.88
2018-07-16T22:17:56.934Z,48.66
2018-07-16T22:20:26.573Z,48.23
2018-07-16T22:22:55.351Z,48.54
2018-07-16T22:25:24.850Z,48.65
2018-07-16T22:27:53.338Z,48.60
2018-07-16T22:30:22.152Z,49.25
2018-07-16T22:32:50.903Z,48.96
2018-07-16T22:35:19.388Z,49.67
2018-07-16T22:37:47.992Z,49.70
2018-07-16T22:40:16.488Z,50.31
2018-07-16T22:42:45.054Z,50.53
2018-07-16T22:45:13.637Z,50.01
2018-07-16T22:47:42.111Z,50.17
2018-07-16T22:50:10.771Z,50.59
2018-07-16T22:52:39.366Z,50.40
2018-07-16T22:55:07.813Z,50.53
2018-07-16T22:57:36.339Z,50.66
2018-07-16T23:00:05.951Z,50.71
2018-07-16T23:02:34.584Z,51.34
2018-07-16T23:05:03.079Z,51.40
2018-07-16T23:07:31.589Z,51.72
2018-07-16T23:10:00.077Z,52.28
2018-07-16T23:12:28.554Z,52.74
2018-07-16T23:14:57.053Z,52.98
2018-07-16T23:17:25.622Z,53.15
2018-07-16T23:19:54.115Z,52.86
2018-07-16T23:22:22.706Z,53.21
2018-07-16T23:24:51.317Z,53.19
2018-07-16T23:27:19.959Z,53.66
2018-07-16T23:29:48.655Z,54.72
2018-07-16T23:32:17.221Z,54.58
2018-07-16T23:34:45.718Z,54.69
2018-07-16T23:37:14.320Z,55.26
2018-07-16T23:39:42.888Z,54.78
2018-07-16T23:42:11.378Z,54.66
2018-07-16T23:44:39.848Z,54.83
2018-07-16T23:47:08.415Z,54.62
2018-07-16T23:49:36.999Z,54.79
2018-07-16T23:52:05.613Z,54.93
2018-07-16T23:54:34.053Z,55.74
2018-07-16T23:57:02.708Z,55.64
2018-07-16T23:59:31.242Z,56.08
